sensor_id;sensor_type;location;lat;lon;timestamp;P1;durP1;ratioP1;P2;durP2;ratioP2
58308;SDS011;44117;57.142;24.826;2023-01-08T00:00:02;18.33;;;8.70;;
58308;SDS011;44117;57.142;24.826;2023-01-08T00:02:30;19.35;;;9.38;;
58308;SDS011;44117;57.142;24.826;2023-01-08T00:04:57;17.15;;;7.82;;
58308;SDS011;44117;57.142;24.826;2023-01-08T00:07:24;24.67;;;10.55;;
58308;SDS011;44117;57.142;24.826;2023-01-08T00:09:52;24.77;;;10.15;;
58308;SDS011;44117;57.142;24.826;2023-01-08T00:12:20;21.20;;;9.88;;
58308;SDS011;44117;57.142;24.826;2023-01-08T00:14:47;22.88;;;10.25;;
58308;SDS011;44117;57.142;24.826;2023-01-08T00:17:14;24.17;;;11.88;;
58308;SDS011;44117;57.142;24.826;2023-01-08T00:19:41;17.83;;;9.90;;
58308;SDS011;44117;57.142;24.826;2023-01-08T00:22:09;20.83;;;10.70;;
58308;SDS011;44117;57.142;24.826;2023-01-08T00:24:36;17.88;;;9.18;;
58308;SDS011;44117;57.142;24.826;2023-01-08T00:27:03;20.05;;;9.80;;
58308;SDS011;44117;57.142;24.826;2023-01-08T00:29:30;17.98;;;9.60;;
58308;SDS011;44117;57.142;24.826;2023-01-08T00:31:58;18.98;;;8.68;;
58308;SDS011;44117;57.142;24.826;2023-01-08T00:34:25;18.40;;;8.25;;
58308;SDS011;44117;57.142;24.826;2023-01-08T00:36:52;19.08;;;8.88;;
58308;SDS011;44117;57.142;24.826;2023-01-08T00:39:19;18.25;;;8.45;;
58308;SDS011;44117;57.142;24.826;2023-01-08T00:41:46;22.23;;;8.82;;
58308;SDS011;44117;57.142;24.826;2023-01-08T00:44:15;21.20;;;9.20;;
58308;SDS011;44117;57.142;24.826;2023-01-08T00:46:42;23.00;;;9.38;;
58308;SDS011;44117;57.142;24.826;2023-01-08T00:49:09;19.92;;;9.00;;
58308;SDS011;44117;57.142;24.826;2023-01-08T00:51:36;17.17;;;8.52;;
58308;SDS011;44117;57.142;24.826;2023-01-08T00:54:04;21.17;;;8.65;;
58308;SDS011;44117;57.142;24.826;2023-01-08T00:56:31;17.30;;;8.85;;
58308;SDS011;44117;57.142;24.826;2023-01-08T00:58:58;18.42;;;8.45;;
58308;SDS011;44117;57.142;24.826;2023-01-08T01:01:26;21.60;;;10.43;;
58308;SDS011;44117;57.142;24.826;2023-01-08T01:03:53;29.83;;;10.07;;
58308;SDS011;44117;57.142;24.826;2023-01-08T01:06:20;26.95;;;10.75;;
58308;SDS011;44117;57.142;24.826;2023-01-08T01:08:48;22.48;;;9.43;;
58308;SDS011;44117;57.142;24.826;2023-01-08T01:11:22;20.33;;;8.48;;
58308;SDS011;44117;57.142;24.826;2023-01-08T01:13:51;20.20;;;9.18;;
58308;SDS011;44117;57.142;24.826;2023-01-08T01:16:23;26.05;;;9.95;;
58308;SDS011;44117;57.142;24.826;2023-01-08T01:18:50;21.60;;;8.85;;
58308;SDS011;44117;57.142;24.826;2023-01-08T01:21:21;27.27;;;11.23;;
58308;SDS011;44117;57.142;24.826;2023-01-08T01:23:53;21.33;;;9.65;;
58308;SDS011;44117;57.142;24.826;2023-01-08T01:26:31;23.65;;;9.02;;
58308;SDS011;44117;57.142;24.826;2023-01-08T01:28:59;20.48;;;10.02;;
58308;SDS011;44117;57.142;24.826;2023-01-08T01:31:29;21.08;;;9.27;;
58308;SDS011;44117;57.142;24.826;2023-01-08T01:33:57;26.10;;;10.23;;
58308;SDS011;44117;57.142;24.826;2023-01-08T01:36:24;23.58;;;10.02;;
58308;SDS011;44117;57.142;24.826;2023-01-08T01:38:53;25.80;;;10.65;;
58308;SDS011;44117;57.142;24.826;2023-01-08T01:41:24;25.38;;;11.88;;
58308;SDS011;44117;57.142;24.826;2023-01-08T01:43:55;23.13;;;10.93;;
58308;SDS011;44117;57.142;24.826;2023-01-08T01:49:11;21.98;;;10.43;;
58308;SDS011;44117;57.142;24.826;2023-01-08T01:51:45;20.70;;;11.07;;
58308;SDS011;44117;57.142;24.826;2023-01-08T01:54:16;19.05;;;9.80;;
58308;SDS011;44117;57.142;24.826;2023-01-08T01:56:44;22.00;;;9.60;;
58308;SDS011;44117;57.142;24.826;2023-01-08T01:59:12;22.38;;;9.23;;
58308;SDS011;44117;57.142;24.826;2023-01-08T02:01:40;22.58;;;9.18;;
58308;SDS011;44117;57.142;24.826;2023-01-08T02:04:09;20.33;;;9.65;;
58308;SDS011;44117;57.142;24.826;2023-01-08T02:06:40;21.98;;;10.25;;
58308;SDS011;44117;57.142;24.826;2023-01-08T02:12:35;22.05;;;9.50;;
58308;SDS011;44117;57.142;24.826;2023-01-08T02:18:08;21.75;;;9.27;;
58308;SDS011;44117;57.142;24.826;2023-01-08T02:20:45;19.33;;;10.23;;
58308;SDS011;44117;57.142;24.826;2023-01-08T02:23:41;22.45;;;10.88;;
58308;SDS011;44117;57.142;24.826;2023-01-08T02:26:18;21.38;;;10.25;;
58308;SDS011;44117;57.142;24.826;2023-01-08T02:28:54;16.90;;;9.07;;
58308;SDS011;44117;57.142;24.826;2023-01-08T02:31:44;19.88;;;8.98;;
58308;SDS011;44117;57.142;24.826;2023-01-08T02:34:12;21.77;;;9.73;;
58308;SDS011;44117;57.142;24.826;2023-01-08T02:36:54;17.08;;;8.27;;
58308;SDS011;44117;57.142;24.826;2023-01-08T02:42:53;18.52;;;8.50;;
58308;SDS011;44117;57.142;24.826;2023-01-08T02:45:35;18.52;;;9.20;;
58308;SDS011;44117;57.142;24.826;2023-01-08T02:48:23;27.38;;;11.07;;
58308;SDS011;44117;57.142;24.826;2023-01-08T02:51:02;25.73;;;11.98;;
58308;SDS011;44117;57.142;24.826;2023-01-08T02:53:34;27.77;;;13.23;;
58308;SDS011;44117;57.142;24.826;2023-01-08T02:56:14;25.25;;;11.73;;
58308;SDS011;44117;57.142;24.826;2023-01-08T02:58:43;21.15;;;11.30;;
58308;SDS011;44117;57.142;24.826;2023-01-08T03:01:14;23.65;;;12.20;;
58308;SDS011;44117;57.142;24.826;2023-01-08T03:03:44;22.88;;;11.07;;
58308;SDS011;44117;57.142;24.826;2023-01-08T03:06:16;28.38;;;15.95;;
58308;SDS011;44117;57.142;24.826;2023-01-08T03:08:46;31.67;;;16.33;;
58308;SDS011;44117;57.142;24.826;2023-01-08T03:11:16;38.78;;;21.23;;
58308;SDS011;44117;57.142;24.826;2023-01-08T03:16:35;17.40;;;8.57;;
58308;SDS011;44117;57.142;24.826;2023-01-08T03:19:22;17.90;;;9.13;;
58308;SDS011;44117;57.142;24.826;2023-01-08T03:21:58;21.67;;;11.00;;
58308;SDS011;44117;57.142;24.826;2023-01-08T03:24:30;22.52;;;11.30;;
58308;SDS011;44117;57.142;24.826;2023-01-08T03:27:01;20.27;;;9.88;;
58308;SDS011;44117;57.142;24.826;2023-01-08T03:29:31;18.55;;;8.77;;
58308;SDS011;44117;57.142;24.826;2023-01-08T03:32:02;17.58;;;8.15;;
58308;SDS011;44117;57.142;24.826;2023-01-08T03:34:33;16.97;;;8.70;;
58308;SDS011;44117;57.142;24.826;2023-01-08T03:37:03;21.33;;;8.80;;
58308;SDS011;44117;57.142;24.826;2023-01-08T03:39:38;17.42;;;8.90;;
58308;SDS011;44117;57.142;24.826;2023-01-08T03:42:11;18.65;;;9.95;;
58308;SDS011;44117;57.142;24.826;2023-01-08T03:44:40;19.27;;;9.10;;
58308;SDS011;44117;57.142;24.826;2023-01-08T03:47:08;20.75;;;11.43;;
58308;SDS011;44117;57.142;24.826;2023-01-08T03:49:37;22.48;;;11.52;;
58308;SDS011;44117;57.142;24.826;2023-01-08T03:52:07;23.55;;;12.70;;
58308;SDS011;44117;57.142;24.826;2023-01-08T03:54:35;25.77;;;13.05;;
58308;SDS011;44117;57.142;24.826;2023-01-08T03:57:02;27.95;;;12.98;;
58308;SDS011;44117;57.142;24.826;2023-01-08T03:59:30;24.15;;;11.68;;
58308;SDS011;44117;57.142;24.826;2023-01-08T04:01:57;20.40;;;11.60;;
58308;SDS011;44117;57.142;24.826;2023-01-08T04:04:24;22.25;;;13.73;;
58308;SDS011;44117;57.142;24.826;2023-01-08T04:06:52;21.90;;;13.20;;
58308;SDS011;44117;57.142;24.826;2023-01-08T04:09:19;22.30;;;11.13;;
58308;SDS011;44117;57.142;24.826;2023-01-08T04:11:46;23.35;;;9.60;;
58308;SDS011;44117;57.142;24.826;2023-01-08T04:14:13;23.80;;;11.30;;
58308;SDS011;44117;57.142;24.826;2023-01-08T04:16:41;37.75;;;18.40;;
58308;SDS011;44117;57.142;24.826;2023-01-08T04:19:09;23.23;;;12.20;;
58308;SDS011;44117;57.142;24.826;2023-01-08T04:21:37;22.33;;;9.77;;
58308;SDS011;44117;57.142;24.826;2023-01-08T04:24:05;20.92;;;10.65;;
58308;SDS011;44117;57.142;24.826;2023-01-08T04:26:32;20.80;;;11.32;;
58308;SDS011;44117;57.142;24.826;2023-01-08T04:29:03;21.52;;;9.57;;
58308;SDS011;44117;57.142;24.826;2023-01-08T04:31:30;21.88;;;9.50;;
58308;SDS011;44117;57.142;24.826;2023-01-08T04:33:57;20.65;;;11.32;;
58308;SDS011;44117;57.142;24.826;2023-01-08T04:36:25;18.08;;;10.63;;
58308;SDS011;44117;57.142;24.826;2023-01-08T04:38:52;21.05;;;8.77;;
58308;SDS011;44117;57.142;24.826;2023-01-08T04:41:19;19.25;;;10.07;;
58308;SDS011;44117;57.142;24.826;2023-01-08T04:43:46;20.30;;;9.82;;
58308;SDS011;44117;57.142;24.826;2023-01-08T04:46:14;19.20;;;11.32;;
58308;SDS011;44117;57.142;24.826;2023-01-08T04:48:41;18.52;;;9.85;;
58308;SDS011;44117;57.142;24.826;2023-01-08T04:51:08;17.77;;;10.18;;
58308;SDS011;44117;57.142;24.826;2023-01-08T04:53:36;24.05;;;12.05;;
58308;SDS011;44117;57.142;24.826;2023-01-08T04:56:08;22.08;;;10.88;;
58308;SDS011;44117;57.142;24.826;2023-01-08T04:58:36;19.60;;;9.60;;
58308;SDS011;44117;57.142;24.826;2023-01-08T05:03:56;20.67;;;9.73;;
58308;SDS011;44117;57.142;24.826;2023-01-08T05:06:25;25.15;;;11.80;;
58308;SDS011;44117;57.142;24.826;2023-01-08T05:08:54;29.45;;;13.00;;
58308;SDS011;44117;57.142;24.826;2023-01-08T05:11:22;27.17;;;12.20;;
58308;SDS011;44117;57.142;24.826;2023-01-08T05:13:50;24.55;;;11.82;;
58308;SDS011;44117;57.142;24.826;2023-01-08T05:16:18;22.38;;;11.60;;
58308;SDS011;44117;57.142;24.826;2023-01-08T05:18:45;24.70;;;13.85;;
58308;SDS011;44117;57.142;24.826;2023-01-08T05:21:13;19.23;;;11.38;;
58308;SDS011;44117;57.142;24.826;2023-01-08T05:23:43;19.95;;;9.68;;
58308;SDS011;44117;57.142;24.826;2023-01-08T05:26:12;19.77;;;10.23;;
58308;SDS011;44117;57.142;24.826;2023-01-08T05:28:40;19.95;;;10.27;;
58308;SDS011;44117;57.142;24.826;2023-01-08T05:31:07;19.90;;;11.13;;
58308;SDS011;44117;57.142;24.826;2023-01-08T05:33:34;20.25;;;10.70;;
58308;SDS011;44117;57.142;24.826;2023-01-08T05:36:05;25.42;;;11.20;;
58308;SDS011;44117;57.142;24.826;2023-01-08T05:38:34;24.40;;;11.73;;
58308;SDS011;44117;57.142;24.826;2023-01-08T05:41:02;19.60;;;10.18;;
58308;SDS011;44117;57.142;24.826;2023-01-08T05:43:30;18.50;;;10.60;;
58308;SDS011;44117;57.142;24.826;2023-01-08T05:45:57;19.70;;;9.40;;
58308;SDS011;44117;57.142;24.826;2023-01-08T05:48:26;19.60;;;10.77;;
58308;SDS011;44117;57.142;24.826;2023-01-08T05:50:54;23.63;;;11.57;;
58308;SDS011;44117;57.142;24.826;2023-01-08T05:53:21;20.27;;;9.50;;
58308;SDS011;44117;57.142;24.826;2023-01-08T05:55:48;23.70;;;10.77;;
58308;SDS011;44117;57.142;24.826;2023-01-08T05:58:16;29.85;;;15.63;;
58308;SDS011;44117;57.142;24.826;2023-01-08T06:00:46;21.48;;;11.68;;
58308;SDS011;44117;57.142;24.826;2023-01-08T06:03:13;23.17;;;14.07;;
58308;SDS011;44117;57.142;24.826;2023-01-08T06:05:40;22.73;;;13.77;;
58308;SDS011;44117;57.142;24.826;2023-01-08T06:08:07;20.35;;;10.75;;
58308;SDS011;44117;57.142;24.826;2023-01-08T06:10:38;19.95;;;11.27;;
58308;SDS011;44117;57.142;24.826;2023-01-08T06:13:09;24.95;;;13.70;;
58308;SDS011;44117;57.142;24.826;2023-01-08T06:15:37;19.98;;;11.57;;
58308;SDS011;44117;57.142;24.826;2023-01-08T06:18:05;19.63;;;10.60;;
58308;SDS011;44117;57.142;24.826;2023-01-08T06:20:33;21.85;;;12.05;;
58308;SDS011;44117;57.142;24.826;2023-01-08T06:23:00;22.27;;;12.75;;
58308;SDS011;44117;57.142;24.826;2023-01-08T06:25:27;22.80;;;11.75;;
58308;SDS011;44117;57.142;24.826;2023-01-08T06:27:55;22.88;;;11.45;;
58308;SDS011;44117;57.142;24.826;2023-01-08T06:30:22;22.25;;;13.05;;
58308;SDS011;44117;57.142;24.826;2023-01-08T06:32:53;36.70;;;17.60;;
58308;SDS011;44117;57.142;24.826;2023-01-08T06:35:25;34.92;;;17.80;;
58308;SDS011;44117;57.142;24.826;2023-01-08T06:37:53;48.88;;;20.42;;
58308;SDS011;44117;57.142;24.826;2023-01-08T06:40:22;57.38;;;24.00;;
58308;SDS011;44117;57.142;24.826;2023-01-08T06:42:49;43.58;;;17.58;;
58308;SDS011;44117;57.142;24.826;2023-01-08T06:45:17;25.35;;;12.45;;
58308;SDS011;44117;57.142;24.826;2023-01-08T06:47:44;51.08;;;22.77;;
58308;SDS011;44117;57.142;24.826;2023-01-08T06:50:11;29.85;;;14.25;;
58308;SDS011;44117;57.142;24.826;2023-01-08T06:52:38;42.75;;;19.67;;
58308;SDS011;44117;57.142;24.826;2023-01-08T06:55:06;28.00;;;15.75;;
58308;SDS011;44117;57.142;24.826;2023-01-08T06:57:34;35.33;;;21.25;;
58308;SDS011;44117;57.142;24.826;2023-01-08T07:00:01;18.40;;;10.00;;
58308;SDS011;44117;57.142;24.826;2023-01-08T07:02:28;29.75;;;14.35;;
58308;SDS011;44117;57.142;24.826;2023-01-08T07:04:56;22.50;;;10.85;;
58308;SDS011;44117;57.142;24.826;2023-01-08T07:07:23;23.90;;;12.48;;
58308;SDS011;44117;57.142;24.826;2023-01-08T07:09:50;25.42;;;13.00;;
58308;SDS011;44117;57.142;24.826;2023-01-08T07:12:17;23.20;;;12.95;;
58308;SDS011;44117;57.142;24.826;2023-01-08T07:14:44;22.75;;;12.73;;
58308;SDS011;44117;57.142;24.826;2023-01-08T07:17:12;26.98;;;13.63;;
58308;SDS011;44117;57.142;24.826;2023-01-08T07:19:39;24.65;;;13.55;;
58308;SDS011;44117;57.142;24.826;2023-01-08T07:22:06;33.92;;;17.05;;
58308;SDS011;44117;57.142;24.826;2023-01-08T07:24:33;41.10;;;19.92;;
58308;SDS011;44117;57.142;24.826;2023-01-08T07:27:00;38.78;;;20.13;;
58308;SDS011;44117;57.142;24.826;2023-01-08T07:29:28;28.67;;;14.75;;
58308;SDS011;44117;57.142;24.826;2023-01-08T07:31:55;23.48;;;12.05;;
58308;SDS011;44117;57.142;24.826;2023-01-08T07:34:22;25.42;;;14.38;;
58308;SDS011;44117;57.142;24.826;2023-01-08T07:36:49;21.88;;;12.18;;
58308;SDS011;44117;57.142;24.826;2023-01-08T07:39:16;23.67;;;11.98;;
58308;SDS011;44117;57.142;24.826;2023-01-08T07:41:43;23.55;;;11.98;;
58308;SDS011;44117;57.142;24.826;2023-01-08T07:44:11;21.48;;;12.18;;
58308;SDS011;44117;57.142;24.826;2023-01-08T07:46:38;30.73;;;18.75;;
58308;SDS011;44117;57.142;24.826;2023-01-08T07:49:06;39.72;;;19.30;;
58308;SDS011;44117;57.142;24.826;2023-01-08T07:51:33;47.33;;;23.77;;
58308;SDS011;44117;57.142;24.826;2023-01-08T07:54:00;29.27;;;16.27;;
58308;SDS011;44117;57.142;24.826;2023-01-08T07:56:28;31.75;;;16.75;;
58308;SDS011;44117;57.142;24.826;2023-01-08T07:58:55;28.77;;;13.90;;
58308;SDS011;44117;57.142;24.826;2023-01-08T08:01:22;21.23;;;11.00;;
58308;SDS011;44117;57.142;24.826;2023-01-08T08:03:51;24.23;;;12.20;;
58308;SDS011;44117;57.142;24.826;2023-01-08T08:06:18;23.63;;;12.32;;
58308;SDS011;44117;57.142;24.826;2023-01-08T08:08:46;34.38;;;18.27;;
58308;SDS011;44117;57.142;24.826;2023-01-08T08:11:13;37.17;;;20.30;;
58308;SDS011;44117;57.142;24.826;2023-01-08T08:13:40;33.30;;;16.20;;
58308;SDS011;44117;57.142;24.826;2023-01-08T08:16:10;34.42;;;18.50;;
58308;SDS011;44117;57.142;24.826;2023-01-08T08:18:38;32.17;;;17.05;;
58308;SDS011;44117;57.142;24.826;2023-01-08T08:21:06;27.35;;;15.40;;
58308;SDS011;44117;57.142;24.826;2023-01-08T08:23:33;22.40;;;12.00;;
58308;SDS011;44117;57.142;24.826;2023-01-08T08:26:02;28.50;;;15.57;;
58308;SDS011;44117;57.142;24.826;2023-01-08T08:28:30;25.75;;;14.43;;
58308;SDS011;44117;57.142;24.826;2023-01-08T08:30:57;22.52;;;12.02;;
58308;SDS011;44117;57.142;24.826;2023-01-08T08:33:24;29.73;;;16.27;;
58308;SDS011;44117;57.142;24.826;2023-01-08T08:35:52;24.63;;;13.73;;
58308;SDS011;44117;57.142;24.826;2023-01-08T08:38:19;42.03;;;20.90;;
58308;SDS011;44117;57.142;24.826;2023-01-08T08:40:49;44.15;;;20.67;;
58308;SDS011;44117;57.142;24.826;2023-01-08T08:43:16;37.42;;;18.77;;
58308;SDS011;44117;57.142;24.826;2023-01-08T08:45:43;67.35;;;33.55;;
58308;SDS011;44117;57.142;24.826;2023-01-08T08:48:11;27.17;;;14.00;;
58308;SDS011;44117;57.142;24.826;2023-01-08T08:50:38;30.60;;;14.68;;
58308;SDS011;44117;57.142;24.826;2023-01-08T08:53:06;34.60;;;18.33;;
58308;SDS011;44117;57.142;24.826;2023-01-08T08:55:33;55.10;;;30.58;;
58308;SDS011;44117;57.142;24.826;2023-01-08T08:58:04;33.67;;;17.73;;
58308;SDS011;44117;57.142;24.826;2023-01-08T09:00:36;29.73;;;17.25;;
58308;SDS011;44117;57.142;24.826;2023-01-08T09:03:05;36.53;;;18.88;;
58308;SDS011;44117;57.142;24.826;2023-01-08T09:05:36;33.83;;;17.70;;
58308;SDS011;44117;57.142;24.826;2023-01-08T09:08:03;37.60;;;20.60;;
58308;SDS011;44117;57.142;24.826;2023-01-08T09:10:31;52.85;;;28.17;;
58308;SDS011;44117;57.142;24.826;2023-01-08T09:12:58;28.67;;;14.85;;
58308;SDS011;44117;57.142;24.826;2023-01-08T09:15:25;35.25;;;21.48;;
58308;SDS011;44117;57.142;24.826;2023-01-08T09:17:53;48.78;;;22.98;;
58308;SDS011;44117;57.142;24.826;2023-01-08T09:20:21;30.23;;;16.23;;
58308;SDS011;44117;57.142;24.826;2023-01-08T09:22:50;62.15;;;27.00;;
58308;SDS011;44117;57.142;24.826;2023-01-08T09:25:17;36.08;;;17.15;;
58308;SDS011;44117;57.142;24.826;2023-01-08T09:27:45;31.17;;;17.48;;
58308;SDS011;44117;57.142;24.826;2023-01-08T09:30:12;61.55;;;34.40;;
58308;SDS011;44117;57.142;24.826;2023-01-08T09:32:39;30.38;;;19.33;;
58308;SDS011;44117;57.142;24.826;2023-01-08T09:35:06;33.40;;;19.45;;
58308;SDS011;44117;57.142;24.826;2023-01-08T09:37:34;38.78;;;19.02;;
58308;SDS011;44117;57.142;24.826;2023-01-08T09:40:01;27.88;;;14.57;;
58308;SDS011;44117;57.142;24.826;2023-01-08T09:42:28;26.63;;;15.13;;
58308;SDS011;44117;57.142;24.826;2023-01-08T09:44:57;33.95;;;17.23;;
58308;SDS011;44117;57.142;24.826;2023-01-08T09:47:30;29.55;;;15.60;;
58308;SDS011;44117;57.142;24.826;2023-01-08T09:50:05;35.30;;;19.42;;
58308;SDS011;44117;57.142;24.826;2023-01-08T09:52:37;50.55;;;27.60;;
58308;SDS011;44117;57.142;24.826;2023-01-08T09:55:10;35.55;;;19.27;;
58308;SDS011;44117;57.142;24.826;2023-01-08T09:57:39;33.40;;;18.52;;
58308;SDS011;44117;57.142;24.826;2023-01-08T10:00:14;26.92;;;14.82;;
58308;SDS011;44117;57.142;24.826;2023-01-08T10:02:44;36.50;;;18.85;;
58308;SDS011;44117;57.142;24.826;2023-01-08T10:05:13;29.10;;;13.85;;
58308;SDS011;44117;57.142;24.826;2023-01-08T10:07:42;32.90;;;16.63;;
58308;SDS011;44117;57.142;24.826;2023-01-08T10:10:15;30.25;;;16.83;;
58308;SDS011;44117;57.142;24.826;2023-01-08T10:12:44;43.60;;;22.98;;
58308;SDS011;44117;57.142;24.826;2023-01-08T10:15:14;45.75;;;25.25;;
58308;SDS011;44117;57.142;24.826;2023-01-08T10:20:30;30.85;;;17.25;;
58308;SDS011;44117;57.142;24.826;2023-01-08T10:25:58;31.38;;;15.90;;
58308;SDS011;44117;57.142;24.826;2023-01-08T10:31:02;37.35;;;19.15;;
58308;SDS011;44117;57.142;24.826;2023-01-08T10:33:36;42.08;;;21.95;;
58308;SDS011;44117;57.142;24.826;2023-01-08T10:36:06;36.72;;;18.40;;
58308;SDS011;44117;57.142;24.826;2023-01-08T10:38:40;45.08;;;24.60;;
58308;SDS011;44117;57.142;24.826;2023-01-08T10:41:15;50.17;;;27.33;;
58308;SDS011;44117;57.142;24.826;2023-01-08T10:43:51;40.90;;;22.55;;
58308;SDS011;44117;57.142;24.826;2023-01-08T10:46:21;49.60;;;26.00;;
58308;SDS011;44117;57.142;24.826;2023-01-08T10:49:43;35.67;;;20.55;;
58308;SDS011;44117;57.142;24.826;2023-01-08T10:52:23;35.83;;;20.25;;
58308;SDS011;44117;57.142;24.826;2023-01-08T10:58:39;38.63;;;20.83;;
58308;SDS011;44117;57.142;24.826;2023-01-08T11:00:40;42.17;;;21.42;;
58308;SDS011;44117;57.142;24.826;2023-01-08T11:03:19;35.13;;;19.20;;
58308;SDS011;44117;57.142;24.826;2023-01-08T11:05:58;52.78;;;28.30;;
58308;SDS011;44117;57.142;24.826;2023-01-08T11:08:25;51.70;;;27.77;;
58308;SDS011;44117;57.142;24.826;2023-01-08T11:10:56;52.03;;;26.95;;
58308;SDS011;44117;57.142;24.826;2023-01-08T11:13:25;42.38;;;24.83;;
58308;SDS011;44117;57.142;24.826;2023-01-08T11:18:30;46.03;;;23.00;;
58308;SDS011;44117;57.142;24.826;2023-01-08T11:21:05;44.55;;;23.83;;
58308;SDS011;44117;57.142;24.826;2023-01-08T11:23:43;82.53;;;39.20;;
58308;SDS011;44117;57.142;24.826;2023-01-08T11:26:16;65.70;;;33.40;;
58308;SDS011;44117;57.142;24.826;2023-01-08T11:31:39;74.72;;;30.77;;
58308;SDS011;44117;57.142;24.826;2023-01-08T11:34:14;61.65;;;28.50;;
58308;SDS011;44117;57.142;24.826;2023-01-08T11:36:52;40.97;;;18.33;;
58308;SDS011;44117;57.142;24.826;2023-01-08T11:39:51;59.05;;;28.40;;
58308;SDS011;44117;57.142;24.826;2023-01-08T11:42:32;68.10;;;34.13;;
58308;SDS011;44117;57.142;24.826;2023-01-08T11:48:08;33.03;;;17.30;;
58308;SDS011;44117;57.142;24.826;2023-01-08T11:53:34;37.30;;;17.30;;
58308;SDS011;44117;57.142;24.826;2023-01-08T11:56:19;33.88;;;15.70;;
58308;SDS011;44117;57.142;24.826;2023-01-08T12:07:17;36.45;;;18.05;;
58308;SDS011;44117;57.142;24.826;2023-01-08T12:13:01;32.15;;;17.00;;
58308;SDS011;44117;57.142;24.826;2023-01-08T12:15:51;40.03;;;18.08;;
58308;SDS011;44117;57.142;24.826;2023-01-08T12:21:33;38.78;;;19.60;;
58308;SDS011;44117;57.142;24.826;2023-01-08T12:24:13;33.28;;;16.17;;
58308;SDS011;44117;57.142;24.826;2023-01-08T12:32:28;36.00;;;20.25;;
58308;SDS011;44117;57.142;24.826;2023-01-08T12:35:21;31.13;;;19.02;;
58308;SDS011;44117;57.142;24.826;2023-01-08T12:40:39;32.13;;;16.52;;
58308;SDS011;44117;57.142;24.826;2023-01-08T12:43:52;33.95;;;16.58;;
58308;SDS011;44117;57.142;24.826;2023-01-08T12:46:16;32.20;;;16.73;;
58308;SDS011;44117;57.142;24.826;2023-01-08T12:48:45;36.42;;;16.50;;
58308;SDS011;44117;57.142;24.826;2023-01-08T12:59:14;29.40;;;15.65;;
58308;SDS011;44117;57.142;24.826;2023-01-08T13:01:58;27.02;;;16.88;;
58308;SDS011;44117;57.142;24.826;2023-01-08T13:04:43;40.08;;;20.95;;
58308;SDS011;44117;57.142;24.826;2023-01-08T13:07:27;34.63;;;18.92;;
58308;SDS011;44117;57.142;24.826;2023-01-08T13:10:01;35.10;;;18.00;;
58308;SDS011;44117;57.142;24.826;2023-01-08T13:12:33;30.83;;;16.02;;
58308;SDS011;44117;57.142;24.826;2023-01-08T13:15:03;31.85;;;17.10;;
58308;SDS011;44117;57.142;24.826;2023-01-08T13:17:32;36.17;;;20.17;;
58308;SDS011;44117;57.142;24.826;2023-01-08T13:20:03;36.38;;;20.08;;
58308;SDS011;44117;57.142;24.826;2023-01-08T13:22:33;45.50;;;23.23;;
58308;SDS011;44117;57.142;24.826;2023-01-08T13:27:43;72.07;;;34.22;;
58308;SDS011;44117;57.142;24.826;2023-01-08T13:33:25;41.72;;;21.60;;
58308;SDS011;44117;57.142;24.826;2023-01-08T13:39:20;55.65;;;27.02;;
58308;SDS011;44117;57.142;24.826;2023-01-08T13:44:48;30.77;;;15.95;;
58308;SDS011;44117;57.142;24.826;2023-01-08T13:47:28;34.00;;;17.63;;
58308;SDS011;44117;57.142;24.826;2023-01-08T13:49:58;31.77;;;18.15;;
58308;SDS011;44117;57.142;24.826;2023-01-08T13:55:15;68.75;;;33.88;;
58308;SDS011;44117;57.142;24.826;2023-01-08T13:57:50;63.22;;;31.05;;
58308;SDS011;44117;57.142;24.826;2023-01-08T14:00:23;46.72;;;26.55;;
58308;SDS011;44117;57.142;24.826;2023-01-08T14:02:52;35.13;;;17.67;;
58308;SDS011;44117;57.142;24.826;2023-01-08T14:05:25;65.05;;;34.70;;
58308;SDS011;44117;57.142;24.826;2023-01-08T14:07:54;38.50;;;20.48;;
58308;SDS011;44117;57.142;24.826;2023-01-08T14:10:22;42.90;;;25.55;;
58308;SDS011;44117;57.142;24.826;2023-01-08T14:12:50;60.63;;;27.20;;
58308;SDS011;44117;57.142;24.826;2023-01-08T14:15:22;51.83;;;25.23;;
58308;SDS011;44117;57.142;24.826;2023-01-08T14:17:53;40.28;;;22.98;;
58308;SDS011;44117;57.142;24.826;2023-01-08T14:20:32;38.55;;;22.77;;
58308;SDS011;44117;57.142;24.826;2023-01-08T14:23:01;51.95;;;28.13;;
58308;SDS011;44117;57.142;24.826;2023-01-08T14:25:35;44.25;;;23.52;;
58308;SDS011;44117;57.142;24.826;2023-01-08T14:28:04;42.90;;;22.73;;
58308;SDS011;44117;57.142;24.826;2023-01-08T14:30:32;47.13;;;24.10;;
58308;SDS011;44117;57.142;24.826;2023-01-08T14:33:01;62.13;;;32.28;;
58308;SDS011;44117;57.142;24.826;2023-01-08T14:35:30;59.85;;;32.55;;
58308;SDS011;44117;57.142;24.826;2023-01-08T14:38:00;42.65;;;23.83;;
58308;SDS011;44117;57.142;24.826;2023-01-08T14:40:30;44.60;;;24.05;;
58308;SDS011;44117;57.142;24.826;2023-01-08T14:43:05;43.28;;;23.85;;
58308;SDS011;44117;57.142;24.826;2023-01-08T14:45:37;33.20;;;17.55;;
58308;SDS011;44117;57.142;24.826;2023-01-08T14:51:06;33.20;;;18.67;;
58308;SDS011;44117;57.142;24.826;2023-01-08T14:53:46;33.50;;;18.27;;
58308;SDS011;44117;57.142;24.826;2023-01-08T14:56:17;34.10;;;17.45;;
58308;SDS011;44117;57.142;24.826;2023-01-08T15:01:18;33.22;;;16.30;;
58308;SDS011;44117;57.142;24.826;2023-01-08T15:03:48;34.67;;;18.15;;
58308;SDS011;44117;57.142;24.826;2023-01-08T15:06:24;36.53;;;20.23;;
58308;SDS011;44117;57.142;24.826;2023-01-08T15:08:53;52.58;;;29.58;;
58308;SDS011;44117;57.142;24.826;2023-01-08T15:13:48;39.47;;;21.52;;
58308;SDS011;44117;57.142;24.826;2023-01-08T15:19:14;48.05;;;23.70;;
58308;SDS011;44117;57.142;24.826;2023-01-08T15:21:48;36.28;;;20.60;;
58308;SDS011;44117;57.142;24.826;2023-01-08T15:24:30;27.10;;;16.30;;
58308;SDS011;44117;57.142;24.826;2023-01-08T15:27:00;34.25;;;17.40;;
58308;SDS011;44117;57.142;24.826;2023-01-08T15:29:39;36.85;;;21.30;;
58308;SDS011;44117;57.142;24.826;2023-01-08T15:34:48;38.28;;;22.50;;
58308;SDS011;44117;57.142;24.826;2023-01-08T15:37:15;53.55;;;31.13;;
58308;SDS011;44117;57.142;24.826;2023-01-08T15:39:43;55.55;;;29.05;;
58308;SDS011;44117;57.142;24.826;2023-01-08T15:45:08;44.03;;;25.77;;
58308;SDS011;44117;57.142;24.826;2023-01-08T15:47:40;58.58;;;35.38;;
58308;SDS011;44117;57.142;24.826;2023-01-08T15:50:08;56.85;;;33.13;;
58308;SDS011;44117;57.142;24.826;2023-01-08T15:52:36;42.78;;;25.20;;
58308;SDS011;44117;57.142;24.826;2023-01-08T15:55:05;34.45;;;20.27;;
58308;SDS011;44117;57.142;24.826;2023-01-08T15:57:39;46.85;;;25.10;;
58308;SDS011;44117;57.142;24.826;2023-01-08T16:00:08;37.15;;;19.08;;
58308;SDS011;44117;57.142;24.826;2023-01-08T16:02:42;40.58;;;20.48;;
58308;SDS011;44117;57.142;24.826;2023-01-08T16:05:13;32.92;;;17.08;;
58308;SDS011;44117;57.142;24.826;2023-01-08T16:07:41;34.42;;;18.08;;
58308;SDS011;44117;57.142;24.826;2023-01-08T16:10:11;34.53;;;17.17;;
58308;SDS011;44117;57.142;24.826;2023-01-08T16:12:40;30.95;;;16.73;;